Nearby METAR Reports

 

KSJC - San Jose, California, USA
Distance from station: NE 14km
Mise à jour: 13/06/2024 16:53
Few Clouds
Few Clouds
 Wind from SSE
Vent: SSE 22 km/h
Température: 16°C
Point de rosée: 11°C
Humidité: 72%
Baromètre: 1013.2 hPa
Clouds: Few Clouds
Visibility: 16 km
Cloud details: Few Clouds 335 m
Few Clouds 4877 m
2024/06/13 14:53 KSJC 131453Z 16012KT 10SM FEW011 FEW160 16/11 A2992 RMK AO2 SLP132 T01610106 53012
KNUQ - Moffett Nas/Mtn, California, USA
Distance from station: N 14km
Mise à jour: 13/06/2024 17:15
clair
clair
 Wind from calm
Vent: calme
Température: 17°C
Point de rosée: 11°C
Humidité: 68%
Baromètre: 1013.5 hPa
Clouds: clair
Visibility: 16 km
2024/06/13 15:15 KNUQ 131515Z AUTO 00000KT 10SM CLR 17/11 A2993 RMK AO2
KPAO - Palo Alto, California, USA
Distance from station: NNO 23km
Mise à jour: 13/06/2024 16:47
Haze, nuageux
Haze, nuageux
 Wind from calm
Vent: calme
Température: 15°C
Point de rosée: 12°C
Humidité: 82%
Baromètre: 1013.5 hPa
Résumé: Haze
Clouds: nuageux
Visibility: 16 km
Cloud details: nuageux 305 m
2024/06/13 14:47 KPAO 131447Z 00000KT 10SM HZ BKN010 15/12 A2993
 
KRHV - San Jose/Reid, California, USA
Distance from station: ENE 19km
Mise à jour: 13/06/2024 16:47
clair
clair
 Wind from S
Vent: S 19 km/h
Température: 16°C
Point de rosée: 11°C
Humidité: 72%
Baromètre: 1013.2 hPa
Clouds: clair
Visibility: 16 km
2024/06/13 14:47 KRHV 131447Z 19010KT 10SM SKC 16/11 A2992
KOAK - Oakland, California, USA
Distance from station: NNO 50km
Mise à jour: 13/06/2024 16:53
nuageux
nuageux
 Wind from OSO
Vent: OSO 11 km/h
Température: 15°C
Point de rosée: 11°C
Humidité: 77%
Baromètre: 1013.9 hPa
Clouds: nuageux
Visibility: 16 km
Cloud details: nuageux 396 m
2024/06/13 14:53 KOAK 131453Z 25006KT 10SM BKN013 15/11 A2994 RMK AO2 SLP138 T01500111 53014
KSQL - San Carlos Airpo, California, USA
Distance from station: NO 34km
Mise à jour: 13/06/2024 16:47
partiellement nuageux
partiellement nuageux
 Wind from O
Vent: O 11 km/h
Température: 13°C
Point de rosée: 10°C
Humidité: 82%
Baromètre: 1013.9 hPa
Clouds: partiellement nuageux
Visibility: 16 km
Cloud details: partiellement nuageux 366 m
2024/06/13 14:47 KSQL 131447Z 28006KT 10SM SCT012 13/10 A2994
 
KSFO - San Francisco, California, USA
Distance from station: NO 49km
Mise à jour: 13/06/2024 16:56
partiellement nuageux
partiellement nuageux
 Wind from calm
Vent: calme
Température: 14°C
Point de rosée: 10°C
Humidité: 77%
Baromètre: 1013.5 hPa
Clouds: partiellement nuageux
Visibility: 16 km
Cloud details: Few Clouds 183 m
partiellement nuageux 488 m
2024/06/13 14:56 KSFO 131456Z 00000KT 10SM FEW006 SCT016 14/10 A2993 RMK AO2 SLP136 T01390100 51014
KE16 - San Martin, California, USA
Distance from station: ESE 43km
Mise à jour: 13/06/2024 17:15
couvert
couvert
 Wind from SE
Vent: SE 20 km/h
Température: 13°C
Point de rosée: 10°C
Humidité: 82%
Baromètre: 1015.2 hPa
Clouds: couvert
Visibility: 14 km
Cloud details: couvert 244 m
2024/06/13 15:15 KE16 131515Z AUTO 13011KT 9SM OVC008 13/10 A2998 RMK AO2
KWVI - Watsonville, California, USA
Distance from station: SSE 44km
Mise à jour: 13/06/2024 16:53
couvert
couvert
 Wind from SSO
Vent: SSO 7 km/h
Température: 12°C
Point de rosée: 10°C
Humidité: 88%
Baromètre: 1015.2 hPa
Clouds: couvert
Visibility: 16 km
Cloud details: couvert 244 m
2024/06/13 14:53 KWVI 131453Z AUTO 21004KT 10SM OVC008 12/10 A2998 RMK AO2 SLP152 T01220100 51011
 
KHAF - Half Moon Bay, California, USA
Distance from station: ONO 50km
Mise à jour: 13/06/2024 17:15
Mist, couvert
Mist, couvert
 Wind from varies
Vent: varies 11 km/h
Température: 11°C
Point de rosée: 11°C
Humidité: 100%
Baromètre: 1015.2 hPa
Résumé: Mist
Clouds: couvert
Visibility: 3 km
Cloud details: couvert 244 m
2024/06/13 15:15 KHAF 131515Z AUTO VRB06KT 2SM BR OVC008 11/11 A2998 RMK AO2
KHWD - Hayward, California, USA
Distance from station: N 44km
Mise à jour: 13/06/2024 16:54
couvert
couvert
 Wind from O
Vent: O 11 km/h
Température: 16°C
Point de rosée: 12°C
Humidité: 77%
Baromètre: 1013.5 hPa
Clouds: couvert
Visibility: 16 km
Cloud details: couvert 335 m
2024/06/13 14:54 KHWD 131454Z 26006KT 10SM OVC011 16/12 A2993 RMK AO2 SLP143 T01560117 53013
KLVK - Livermore, California, USA
Distance from station: NNE 51km
Mise à jour: 13/06/2024 16:53
clair
clair
 Wind from ONO
Vent: ONO 9 km/h
Température: 16°C
Point de rosée: 12°C
Humidité: 77%
Baromètre: 1012.9 hPa
Clouds: clair
Visibility: 14 km
2024/06/13 14:53 KLVK 131453Z 30005KT 9SM CLR 16/12 A2991 RMK AO2 SLP124 T01560117 52014